KEBS/EBS METAR and TAF weather

Enter ICAO airport designator
Station Type Date Time Source
KEBS METAR 2022/06/30 00:35 UTC NOAA

KEBS 300035Z AUTO 20012G18KT 10SM CLR 31/17 A2995 RMK AO2


Station Type Date Time Source
KEBS Decoded METAR 2022/06/30 00:35 UTC NOAA

Webster City, IA, United States (KEBS) 42-26N 093-52W
Jun 29, 2022 - 08:35 PM EDT / 2022.06.30 0035 UTC
Wind: from the SSW (200 degrees) at 14 MPH (12 KT) gusting to 21 MPH (18 KT):0
Visibility: 10 mile(s):0
Sky conditions: clear
Temperature: 87 F (31 C)
Dew Point: 62 F (17 C)
Relative Humidity: 43%
Pressure (altimeter): 29.95 in. Hg (1014 hPa)
ob: KEBS 300035Z AUTO 20012G18KT 10SM CLR 31/17 A2995 RMK AO2
cycle: 0

Station Type Date Time Source
KEBS TAF UTC NOAA

Error!

Example: see airport list